BBRO2: Mountain Fork, Broken Bow Rereg

                                SHEF ID:       BBRO2     Mountain Fork Re-regulation Dam
STATION TYPE:

STAGE RIV-FLOW VOLTAGE BAT-LOAD
ft cfs volt volt
Ccp-Rev Ccp-Rev Ccp-Rev Ccp-Rev
(America/Chicago)
04/22 00:00 392.87 1673 13.16 12.30
04/22 01:00 392.42 1474 13.16 12.36
04/22 02:00 392.01 1314 13.16 12.37
04/22 03:00 391.65 1160 13.15 12.31
04/22 04:00 391.35 1045 13.13 12.27
04/22 05:00 391.06 945 13.16 12.53
04/22 06:00 390.82 837 13.17 12.48
04/22 07:00 390.60 740 13.16 12.44
04/22 08:00 390.40 662 13.17 12.42
04/22 09:00 390.21 596 13.16 12.41
04/22 10:00 390.06 548 13.16 12.40
04/22 11:00 389.93 505 13.15 12.39
04/22 12:00 389.80 461 13.17 12.42
04/22 13:00 389.68 424 13.13 12.37
04/22 14:00 389.59 398 13.16 12.37
04/22 15:00 389.49 371 13.15 12.30
04/22 16:00 389.40 348 13.16 12.41
04/22 17:00 389.33 332 13.15 12.37
04/22 18:00 389.26 316 13.16 12.37
04/22 19:00 389.20 303 13.16 12.34
04/22 20:00 389.14 290 13.15 12.31
04/22 21:00 389.09 280 13.10 12.37
04/22 22:00 389.05 272 13.15 12.31
04/22 23:00 389.00 263 13.13 12.33
Data processed at Thu 23Apr2026 04:34 GMT

NOTICE: If you are parsing this page

Please convert to using our Data API. Starting early 2026 we will be migrating to: https://water.usace.army.mil with modern pages rendered in JavaScript. When this migration completes you will no longer be able to scrape this page! CWMSDataAPI (CDA)

Timeseries IDs (TSIDs)

TSIDs used from left to right in the data table
BROM.Stage.Inst.1Hour.0.Ccp-Rev
BROM.Flow.Inst.1Hour.0.Ccp-Rev
BROM.Volt-Battery.Inst.1Hour.0.Ccp-Rev
BROM.Volt-Battery Load.Inst.1Hour.0.Ccp-Rev

                            

All information presented herein is the property of the government of the United States of America and may be revised or deleted at any time without prior notice. Dissemination of this information without the expressed written consent of the Public Affairs Office, Tulsa District U.S. Army Corps of Engineers is strictly prohibited. These data are gathered electronically and, as presented, have NOT undergone any form of quality control. These data are NOT guaranteed to be valid or correct.